Time;durP1;ratioP1;P1;durP2;ratioP2;P2;SDS_P1;SDS_P2;PMS_P1;PMS_P2;Temp;Humidity;BMP_temperature;BMP_pressure;BME280_temperature;BME280_humidity;BME280_pressure;Samples;Min_cycle;Max_cycle;Signal;HPM_P1;HPM_P2
2021/01/03 00:00:18;;;;;;;17.85;11.57;;;230.80;1689.60;;;;;;5112570;28;20107;-55
2021/01/03 00:02:45;;;;;;;17.60;11.20;;;230.80;1689.60;;;;;;5110891;28;20516;-56
2021/01/03 00:05:13;;;;;;;17.17;11.60;;;230.90;1689.60;;;;;;5097019;28;20056;-55
2021/01/03 00:07:39;;;;;;;16.45;11.32;;;231.00;1664.00;;;;;;5093740;28;20024;-56
2021/01/03 00:10:06;;;;;;;19.20;12.02;;;230.90;1664.00;;;;;;5093389;28;20474;-56
2021/01/03 00:12:32;;;;;;;17.90;11.05;;;230.90;1689.60;;;;;;5093746;28;20020;-57
2021/01/03 00:14:58;;;;;;;18.13;12.02;;;231.00;1664.00;;;;;;5092443;28;20020;-55
2021/01/03 00:17:24;;;;;;;16.65;11.68;;;231.10;1664.00;;;;;;5103725;28;20088;-55
2021/01/03 00:19:49;;;;;;;19.40;12.02;;;231.10;1664.00;;;;;;5112397;28;20560;-56
2021/01/03 00:22:15;;;;;;;15.57;10.77;;;231.10;1664.00;;;;;;5111332;28;20536;-55
2021/01/03 00:24:41;;;;;;;20.70;11.90;;;231.00;1664.00;;;;;;5112900;28;20377;-55
2021/01/03 00:27:08;;;;;;;19.58;12.35;;;231.10;1638.40;;;;;;5110469;28;20076;-56
2021/01/03 00:29:33;;;;;;;18.13;11.55;;;231.20;1638.40;;;;;;5110781;28;20023;-56
2021/01/03 00:32:00;;;;;;;18.60;11.07;;;231.20;1638.40;;;;;;5112071;28;20030;-56
2021/01/03 00:34:27;;;;;;;17.02;10.93;;;231.10;1664.00;;;;;;5112374;28;20045;-55
2021/01/03 00:36:53;;;;;;;17.55;10.93;;;231.20;1638.40;;;;;;5112900;28;20035;-58
2021/01/03 00:39:19;;;;;;;14.57;10.20;;;231.20;1612.80;;;;;;5107894;28;20020;-57
2021/01/03 00:41:51;;;;;;;16.73;10.30;;;231.30;1612.80;;;;;;5109605;28;20029;-57
2021/01/03 00:44:17;;;;;;;16.60;10.52;;;256.00;1612.80;;;;;;5108989;28;20019;-56
2021/01/03 00:46:43;;;;;;;16.17;11.32;;;256.00;1612.80;;;;;;5106449;28;20039;-55
2021/01/03 00:49:09;;;;;;;20.48;10.48;;;256.10;1612.80;;;;;;5103192;28;20028;-57
2021/01/03 00:51:35;;;;;;;16.33;10.77;;;256.10;1587.20;;;;;;5111516;28;20024;-59
2021/01/03 00:54:02;;;;;;;16.63;11.32;;;256.10;1587.20;;;;;;5110645;28;20046;-59
2021/01/03 00:56:28;;;;;;;17.35;11.70;;;256.20;1587.20;;;;;;5109585;28;20099;-59
2021/01/03 00:58:53;;;;;;;15.43;9.32;;;256.20;1587.20;;;;;;5112098;28;20122;-58
2021/01/03 01:01:21;;;;;;;16.30;11.57;;;256.30;1561.60;;;;;;5104413;28;20047;-58
2021/01/03 01:03:49;;;;;;;15.90;10.52;;;256.20;1587.20;;;;;;5092715;28;20043;-61
2021/01/03 01:06:15;;;;;;;16.45;10.23;;;256.20;1587.20;;;;;;5098228;28;20500;-59
2021/01/03 01:08:41;;;;;;;17.13;10.10;;;256.10;1561.60;;;;;;5112742;28;20088;-58
2021/01/03 01:11:07;;;;;;;14.00;9.68;;;256.30;1561.60;;;;;;5113373;28;20731;-59
2021/01/03 01:13:33;;;;;;;15.70;9.63;;;256.30;1561.60;;;;;;5113192;28;20025;-58
2021/01/03 01:16:00;;;;;;;15.60;9.43;;;256.30;1561.60;;;;;;5113084;28;20027;-57
2021/01/03 01:18:25;;;;;;;14.25;10.57;;;256.30;1561.60;;;;;;5112838;28;20016;-58
2021/01/03 01:20:51;;;;;;;13.23;8.98;;;256.30;1536.00;;;;;;5113266;28;20031;-58
2021/01/03 01:23:17;;;;;;;16.52;9.70;;;256.40;1561.60;;;;;;5098443;28;20016;-57
2021/01/03 01:25:42;;;;;;;14.75;9.23;;;256.30;1561.60;;;;;;5113126;28;20048;-58
2021/01/03 01:28:08;;;;;;;16.52;10.43;;;256.40;1561.60;;;;;;5112919;28;20023;-56
2021/01/03 01:30:37;;;;;;;15.82;10.55;;;256.40;1561.60;;;;;;5103564;28;20107;-55
2021/01/03 01:33:04;;;;;;;16.95;10.27;;;256.40;1561.60;;;;;;5108222;28;20027;-55
2021/01/03 01:35:33;;;;;;;15.85;9.68;;;256.50;1536.00;;;;;;5113039;28;20071;-58
2021/01/03 01:38:00;;;;;;;23.40;9.80;;;256.50;1536.00;;;;;;5115621;28;20039;-57
2021/01/03 01:40:36;;;;;;;17.38;9.95;;;256.40;1536.00;;;;;;5111425;28;20027;-55
2021/01/03 01:43:03;;;;;;;16.65;10.80;;;256.40;1561.60;;;;;;5096512;28;20020;-56
2021/01/03 01:45:35;;;;;;;17.60;11.25;;;256.40;1561.60;;;;;;5096679;28;20040;-59
2021/01/03 01:48:12;;;;;;;18.38;10.10;;;256.40;1561.60;;;;;;5096141;28;20470;-55
2021/01/03 01:50:44;;;;;;;18.02;10.88;;;256.50;1561.60;;;;;;5096560;28;20355;-57
2021/01/03 01:53:30;;;;;;;18.38;10.43;;;256.40;1587.20;;;;;;5096614;28;20024;-56
2021/01/03 01:56:09;;;;;;;15.93;10.05;;;256.40;1638.40;;;;;;5083302;28;20107;-56
2021/01/03 01:58:34;;;;;;;;;;;256.50;1638.40;;;;;;5096592;28;20069;-55
2021/01/03 02:01:07;;;;;;;14.43;9.07;;;256.40;1689.60;;;;;;5096232;28;19912;-56
2021/01/03 02:03:42;;;;;;;15.45;9.52;;;256.30;1664.00;;;;;;5095888;28;20082;-58
2021/01/03 02:06:23;;;;;;;15.23;8.98;;;256.40;1664.00;;;;;;5082763;28;20386;-56
2021/01/03 02:08:56;;;;;;;15.20;9.52;;;256.30;1664.00;;;;;;5096052;28;20024;-56
2021/01/03 02:11:28;;;;;;;12.95;8.65;;;256.30;1638.40;;;;;;5096300;28;20020;-56
2021/01/03 02:13:56;;;;;;;14.57;8.57;;;256.30;1664.00;;;;;;5094861;28;20031;-57
2021/01/03 02:16:28;;;;;;;14.05;9.10;;;256.40;1664.00;;;;;;5095825;28;20555;-56
2021/01/03 02:18:54;;;;;;;14.73;9.30;;;256.40;1638.40;;;;;;5099671;28;20024;-56
2021/01/03 02:21:49;;;;;;;12.35;9.05;;;256.40;1664.00;;;;;;5097683;28;20065;-57
2021/01/03 02:24:39;;;;;;;13.55;7.85;;;256.40;1664.00;;;;;;5102755;28;20016;-59
2021/01/03 02:27:13;;;;;;;13.52;9.27;;;256.40;1664.00;;;;;;5106063;28;20144;-54
2021/01/03 02:29:40;;;;;;;14.60;8.50;;;256.50;1638.40;;;;;;5094849;28;20016;-56
2021/01/03 02:32:07;;;;;;;14.63;9.13;;;256.50;1664.00;;;;;;5094933;28;20021;-56
2021/01/03 02:34:38;;;;;;;13.45;9.45;;;256.40;1664.00;;;;;;5095655;28;20111;-55
2021/01/03 02:37:18;;;;;;;13.40;8.60;;;256.30;1689.60;;;;;;5094968;28;20084;-58
2021/01/03 02:39:55;;;;;;;15.80;8.43;;;256.30;1689.60;;;;;;5094953;28;20461;-55
2021/01/03 02:42:32;;;;;;;16.05;10.23;;;256.30;1715.20;;;;;;5095321;28;20480;-58
2021/01/03 02:44:59;;;;;;;13.43;8.38;;;256.10;1715.20;;;;;;5094713;28;20039;-58
2021/01/03 02:47:31;;;;;;;13.00;9.02;;;256.20;1715.20;;;;;;5093293;28;20444;-58
2021/01/03 02:49:57;;;;;;;16.23;9.57;;;256.20;1715.20;;;;;;5096089;28;20465;-60
2021/01/03 02:52:29;;;;;;;10.85;8.02;;;256.10;1740.80;;;;;;5104654;27;20024;-59
2021/01/03 02:54:55;;;;;;;13.95;9.27;;;256.10;1715.20;;;;;;5095011;28;20031;-58
2021/01/03 02:57:21;;;;;;;17.02;9.52;;;256.20;1715.20;;;;;;5094403;28;20020;-57
2021/01/03 02:59:46;;;;;;;19.75;9.63;;;256.20;1715.20;;;;;;5094468;28;20024;-60
2021/01/03 03:02:12;;;;;;;15.15;8.82;;;256.10;1715.20;;;;;;5105520;28;20098;-58
2021/01/03 03:04:38;;;;;;;15.68;9.05;;;256.10;1740.80;;;;;;5095024;27;20070;-57
2021/01/03 03:07:04;;;;;;;15.88;9.93;;;231.30;1766.40;;;;;;5094452;28;20028;-57
2021/01/03 03:09:29;;;;;;;13.35;8.27;;;231.30;1766.40;;;;;;5094875;28;20021;-56
2021/01/03 03:11:55;;;;;;;15.05;9.05;;;231.30;1766.40;;;;;;5094698;28;20030;-59
2021/01/03 03:14:21;;;;;;;11.13;7.93;;;231.30;1740.80;;;;;;5101471;28;20137;-60
2021/01/03 03:16:46;;;;;;;13.90;9.05;;;231.30;1766.40;;;;;;5098024;28;20054;-60
2021/01/03 03:19:14;;;;;;;13.70;8.23;;;231.30;1766.40;;;;;;5094548;28;20020;-56
2021/01/03 03:21:40;;;;;;;14.35;9.40;;;231.30;1766.40;;;;;;5094327;28;20115;-58
2021/01/03 03:24:06;;;;;;;13.93;8.98;;;231.20;1766.40;;;;;;5094610;28;20169;-56
2021/01/03 03:26:32;;;;;;;17.63;9.52;;;231.10;1792.00;;;;;;5106338;28;20039;-59
2021/01/03 03:28:57;;;;;;;13.75;9.40;;;231.10;1792.00;;;;;;5115224;28;20023;-57
2021/01/03 03:31:29;;;;;;;14.98;9.23;;;231.20;1792.00;;;;;;5114888;28;20034;-55
2021/01/03 03:33:55;;;;;;;16.60;8.95;;;231.00;1817.60;;;;;;5100832;28;20085;-56
2021/01/03 03:36:21;;;;;;;14.32;9.13;;;231.00;1817.60;;;;;;5114522;28;20028;-57
2021/01/03 03:38:46;;;;;;;14.15;8.98;;;231.00;1817.60;;;;;;5094192;28;20031;-59
2021/01/03 03:41:20;;;;;;;17.55;9.25;;;230.90;1843.20;;;;;;5094670;28;20511;-58
2021/01/03 03:43:47;;;;;;;16.50;10.02;;;230.90;1843.20;;;;;;5094495;28;20450;-59
2021/01/03 03:46:14;;;;;;;15.70;10.07;;;230.90;1843.20;;;;;;5093902;28;20393;-57
2021/01/03 03:48:39;;;;;;;15.00;9.38;;;230.90;1868.80;;;;;;5092692;28;20378;-57
2021/01/03 03:51:05;;;;;;;14.65;9.45;;;230.90;1868.80;;;;;;5094135;28;20027;-58
2021/01/03 03:53:31;;;;;;;14.80;9.65;;;231.00;1843.20;;;;;;5094061;28;20054;-54
2021/01/03 03:55:56;;;;;;;14.48;8.68;;;230.90;1868.80;;;;;;5094089;28;20025;-54
2021/01/03 03:58:23;;;;;;;14.40;8.88;;;231.00;1843.20;;;;;;5094015;28;20365;-54
2021/01/03 04:00:49;;;;;;;16.15;9.68;;;231.00;1868.80;;;;;;5094674;28;20031;-54
2021/01/03 04:03:18;;;;;;;16.63;10.18;;;230.90;1868.80;;;;;;5094575;28;20020;-54
2021/01/03 04:05:46;;;;;;;16.63;10.00;;;231.00;1843.20;;;;;;5094235;28;20051;-56
2021/01/03 04:08:13;;;;;;;17.45;10.00;;;231.00;1868.80;;;;;;5093843;28;20016;-60
2021/01/03 04:10:40;;;;;;;18.10;10.10;;;231.10;1843.20;;;;;;5094396;28;20031;-58
2021/01/03 04:13:07;;;;;;;18.30;10.80;;;231.10;1843.20;;;;;;5093609;28;20379;-60
2021/01/03 04:15:32;;;;;;;15.90;10.25;;;231.10;1843.20;;;;;;5093847;28;20024;-59
2021/01/03 04:17:58;;;;;;;17.17;10.40;;;231.00;1843.20;;;;;;5093261;28;20035;-54
2021/01/03 04:20:24;;;;;;;14.73;10.00;;;231.00;1868.80;;;;;;5093807;28;20081;-58
2021/01/03 04:22:49;;;;;;;15.73;10.40;;;231.10;1868.80;;;;;;5093807;28;20020;-62
2021/01/03 04:25:16;;;;;;;19.00;10.50;;;231.10;1843.20;;;;;;5093403;28;20024;-54
2021/01/03 04:27:42;;;;;;;16.50;9.70;;;231.10;1843.20;;;;;;5093474;28;20501;-54
2021/01/03 04:30:09;;;;;;;17.15;9.82;;;231.00;1868.80;;;;;;5093716;28;20370;-54
2021/01/03 04:32:35;;;;;;;16.00;10.80;;;231.10;1843.20;;;;;;5093269;28;20028;-55
2021/01/03 04:35:00;;;;;;;18.35;11.27;;;231.00;1868.80;;;;;;5093467;28;20032;-55
2021/01/03 04:37:26;;;;;;;17.40;10.13;;;230.90;1894.40;;;;;;5093070;28;20492;-55
2021/01/03 04:39:52;;;;;;;16.17;10.18;;;230.80;1868.80;;;;;;5093399;28;20016;-56
2021/01/03 04:42:22;;;;;;;17.67;10.30;;;230.70;1920.00;;;;;;5097021;28;20032;-55
2021/01/03 04:45:04;;;;;;;16.80;10.85;;;230.80;1894.40;;;;;;5110858;28;20035;-55
2021/01/03 04:47:39;;;;;;;16.42;10.57;;;230.70;1894.40;;;;;;5094561;28;20020;-55
2021/01/03 04:50:29;;;;;;;15.93;9.77;;;230.70;1920.00;;;;;;5105080;28;20081;-55
2021/01/03 04:53:06;;;;;;;16.67;9.57;;;230.70;1894.40;;;;;;5086994;28;20024;-55
2021/01/03 04:55:36;;;;;;;16.17;9.98;;;230.80;1894.40;;;;;;5098694;28;20027;-55
2021/01/03 04:58:14;;;;;;;14.65;9.68;;;230.80;1920.00;;;;;;5099983;28;20019;-54
2021/01/03 05:01:08;;;;;;;13.93;9.82;;;230.70;1920.00;;;;;;5113226;28;20185;-54
2021/01/03 05:04:15;;;;;;;18.70;11.25;;;230.70;1920.00;;;;;;5102423;28;20099;-56
2021/01/03 05:06:49;;;;;;;18.52;10.82;;;230.80;1920.00;;;;;;5049029;28;20128;-56
2021/01/03 05:09:15;;;;;;;17.98;10.40;;;230.80;1920.00;;;;;;5050367;28;20021;-56
2021/01/03 05:11:56;;;;;;;15.20;9.70;;;230.80;1894.40;;;;;;5049657;28;20066;-54
2021/01/03 05:14:39;;;;;;;17.20;9.55;;;230.70;1920.00;;;;;;5050404;28;20176;-54
2021/01/03 05:17:05;;;;;;;12.98;8.20;;;230.70;1920.00;;;;;;5050072;28;20145;-55
2021/01/03 05:19:30;;;;;;;14.90;9.38;;;230.70;1920.00;;;;;;5050334;28;20109;-56
2021/01/03 05:21:57;;;;;;;17.00;9.82;;;230.70;1920.00;;;;;;5050011;28;20032;-54
2021/01/03 05:24:28;;;;;;;16.95;10.30;;;230.60;1945.60;;;;;;5050227;28;20041;-56
2021/01/03 05:26:56;;;;;;;13.63;9.05;;;230.60;1945.60;;;;;;5050102;28;20040;-55
2021/01/03 05:29:25;;;;;;;20.23;10.10;;;230.60;1945.60;;;;;;5050038;28;20549;-54
2021/01/03 05:32:03;;;;;;;14.05;9.57;;;230.70;1945.60;;;;;;5049978;28;20037;-55
2021/01/03 05:34:38;;;;;;;14.98;8.63;;;230.70;1920.00;;;;;;5050178;28;20036;-54
2021/01/03 05:37:11;;;;;;;15.05;9.55;;;230.70;1945.60;;;;;;5049954;28;20152;-55
2021/01/03 05:39:38;;;;;;;15.50;9.00;;;230.60;1971.20;;;;;;5050137;28;20023;-55
2021/01/03 05:42:27;;;;;;;14.32;9.70;;;230.60;1971.20;;;;;;5053797;28;20051;-55
2021/01/03 05:45:25;;;;;;;15.77;8.27;;;230.60;1971.20;;;;;;5072323;28;20056;-57
2021/01/03 05:48:00;;;;;;;17.63;8.80;;;230.60;1971.20;;;;;;5092168;28;20035;-55
2021/01/03 05:50:30;;;;;;;13.90;8.07;;;230.70;1945.60;;;;;;5092686;28;20438;-55
2021/01/03 05:53:05;;;;;;;11.90;7.95;;;230.70;1971.20;;;;;;5092729;28;20016;-55
2021/01/03 05:55:31;;;;;;;13.50;8.63;;;230.70;1971.20;;;;;;5093097;28;20039;-54
2021/01/03 05:58:15;;;;;;;12.10;7.72;;;230.80;1945.60;;;;;;5092411;28;20128;-56
2021/01/03 06:00:41;;;;;;;14.52;8.02;;;230.70;1971.20;;;;;;5092933;28;20036;-56
2021/01/03 06:03:27;;;;;;;14.27;7.55;;;230.80;1945.60;;;;;;5091986;28;20073;-55
2021/01/03 06:06:22;;;;;;;13.32;7.70;;;230.80;1945.60;;;;;;5092116;28;20068;-55
2021/01/03 06:08:49;;;;;;;11.98;7.35;;;230.80;1971.20;;;;;;5092337;28;20086;-54
2021/01/03 06:11:20;;;;;;;11.75;7.55;;;230.80;1971.20;;;;;;5092410;28;20419;-54
2021/01/03 06:13:49;;;;;;;9.85;7.03;;;230.90;1971.20;;;;;;5092424;28;20020;-55
2021/01/03 06:16:17;;;;;;;10.85;7.43;;;231.00;1945.60;;;;;;5092110;28;20492;-54
2021/01/03 06:18:51;;;;;;;12.38;7.88;;;230.80;1971.20;;;;;;5090597;28;20416;-56
2021/01/03 06:21:30;;;;;;;12.07;6.63;;;230.90;1971.20;;;;;;5092231;28;20024;-55
2021/01/03 06:24:11;;;;;;;12.55;7.82;;;231.00;1945.60;;;;;;5079111;28;20016;-55
2021/01/03 06:26:43;;;;;;;14.43;7.93;;;231.10;1945.60;;;;;;5095636;28;20377;-55
2021/01/03 06:29:34;;;;;;;10.95;7.30;;;231.10;1945.60;;;;;;5096520;28;20331;-54
2021/01/03 06:32:18;;;;;;;10.13;6.88;;;231.10;1945.60;;;;;;5032932;28;20049;-55
2021/01/03 06:35:08;;;;;;;10.30;6.75;;;231.10;1945.60;;;;;;5033264;28;20037;-55
2021/01/03 06:37:40;;;;;;;11.32;6.70;;;231.10;1945.60;;;;;;5031013;28;20042;-54
2021/01/03 06:40:34;;;;;;;12.75;8.25;;;231.10;1945.60;;;;;;5024859;28;20045;-56
2021/01/03 06:43:24;;;;;;;12.10;7.15;;;231.30;1920.00;;;;;;5033078;28;20061;-56
2021/01/03 06:46:04;;;;;;;12.57;7.50;;;231.20;1945.60;;;;;;5033130;28;20029;-56
2021/01/03 06:48:49;;;;;;;16.73;8.18;;;231.30;1945.60;;;;;;5032439;28;20065;-54
2021/01/03 06:51:26;;;;;;;21.17;13.20;;;231.20;1945.60;;;;;;5033167;28;20472;-54
2021/01/03 06:54:03;;;;;;;124.90;90.57;;;231.30;1945.60;;;;;;5030865;28;20034;-56
2021/01/03 06:56:49;;;;;;;93.28;56.67;;;256.00;1945.60;;;;;;5022385;28;20038;-54
2021/01/03 06:59:45;;;;;;;483.45;312.55;;;231.20;1945.60;;;;;;5032919;28;20033;-55
2021/01/03 07:02:11;;;;;;;56.53;35.95;;;231.20;1971.20;;;;;;5032795;28;20462;-55
2021/01/03 07:04:38;;;;;;;40.83;29.50;;;231.30;1945.60;;;;;;5032887;28;20073;-55
2021/01/03 07:07:17;;;;;;;27.25;16.38;;;231.30;1945.60;;;;;;5033168;28;20381;-55
2021/01/03 07:09:56;;;;;;;;;;;256.10;1920.00;;;;;;5079028;28;20028;-54
2021/01/03 07:12:44;;;;;;;12.35;7.63;;;231.30;1945.60;;;;;;5101374;28;19908;-55
2021/01/03 07:15:32;;;;;;;55.10;47.72;;;231.30;1945.60;;;;;;5093069;28;20534;-56
2021/01/03 07:17:57;;;;;;;20.13;17.42;;;231.30;1945.60;;;;;;5115205;28;20036;-55
2021/01/03 07:20:50;;;;;;;11.90;8.30;;;231.30;1945.60;;;;;;5115660;28;20032;-56
2021/01/03 07:23:36;;;;;;;14.90;9.50;;;256.10;1945.60;;;;;;5114994;27;20054;-56
2021/01/03 07:26:21;;;;;;;13.45;8.23;;;256.10;1945.60;;;;;;5114850;28;20036;-55
2021/01/03 07:28:55;;;;;;;15.35;11.23;;;256.20;1945.60;;;;;;5104839;28;20111;-55
2021/01/03 07:32:02;;;;;;;15.40;9.95;;;256.10;1971.20;;;;;;5101730;28;20381;-55
2021/01/03 07:34:33;;;;;;;18.15;10.32;;;256.10;1945.60;;;;;;5094025;28;20501;-55
2021/01/03 07:37:10;;;;;;;19.23;12.43;;;256.20;1945.60;;;;;;5091899;28;20378;-56
2021/01/03 07:39:56;;;;;;;19.55;13.57;;;256.20;1945.60;;;;;;5112848;28;20073;-56
2021/01/03 07:42:29;;;;;;;28.52;19.90;;;256.20;1945.60;;;;;;5110446;28;20098;-55
2021/01/03 07:44:56;;;;;;;14.43;9.95;;;256.10;1945.60;;;;;;5095853;28;20097;-56
2021/01/03 07:47:51;;;;;;;19.73;11.77;;;256.20;1945.60;;;;;;5107881;28;20035;-55
2021/01/03 07:50:22;;;;;;;15.77;10.63;;;256.30;1945.60;;;;;;5094221;28;20028;-56
2021/01/03 07:52:59;;;;;;;29.33;25.13;;;256.30;1920.00;;;;;;5091353;28;20013;-55
2021/01/03 07:55:32;;;;;;;18.17;10.45;;;256.30;1920.00;;;;;;5107075;28;20019;-55
2021/01/03 07:58:09;;;;;;;23.45;16.55;;;256.30;1920.00;;;;;;5093035;28;20048;-56
2021/01/03 08:00:40;;;;;;;17.35;10.63;;;256.30;1920.00;;;;;;5092836;28;20035;-55
2021/01/03 08:03:17;;;;;;;15.77;10.25;;;256.50;1894.40;;;;;;5089729;28;20058;-55
2021/01/03 08:05:45;;;;;;;17.92;11.52;;;256.60;1894.40;;;;;;5093682;28;20127;-54
2021/01/03 08:08:10;;;;;;;19.63;10.15;;;256.70;1868.80;;;;;;5093793;28;20385;-53
2021/01/03 08:10:36;;;;;;;13.80;8.98;;;256.70;1868.80;;;;;;5092966;28;20024;-55
2021/01/03 08:13:08;;;;;;;15.25;9.88;;;256.70;1868.80;;;;;;5093982;28;20374;-55
2021/01/03 08:15:35;;;;;;;12.27;8.18;;;256.60;1868.80;;;;;;5093284;28;20055;-54
2021/01/03 08:18:06;;;;;;;16.88;10.90;;;256.60;1894.40;;;;;;5093444;28;20028;-54
2021/01/03 08:20:33;;;;;;;12.68;10.65;;;256.60;1894.40;;;;;;5092025;28;20414;-54
2021/01/03 08:23:19;;;;;;;14.98;9.85;;;256.60;1894.40;;;;;;5093688;28;20493;-55
2021/01/03 08:25:46;;;;;;;15.43;9.75;;;256.80;1843.20;;;;;;5093678;28;20161;-55
2021/01/03 08:28:18;;;;;;;14.18;8.20;;;281.70;2048.00;;;;;;5093425;28;20055;-55
2021/01/03 08:30:46;;;;;;;17.50;8.80;;;256.90;1817.60;;;;;;5104487;28;20031;-53
2021/01/03 08:33:26;;;;;;;14.40;10.80;;;281.70;1843.20;;;;;;5109497;28;20024;-53
2021/01/03 08:35:52;;;;;;;13.30;8.57;;;281.70;1817.60;;;;;;5101222;28;20024;-53
2021/01/03 08:38:28;;;;;;;12.50;8.75;;;281.70;1792.00;;;;;;5103532;28;20027;-60
2021/01/03 08:41:01;;;;;;;14.98;8.75;;;281.80;1792.00;;;;;;5095126;28;20024;-54
2021/01/03 08:43:30;;;;;;;13.27;8.55;;;281.70;1792.00;;;;;;5092776;28;20490;-54
2021/01/03 08:46:01;;;;;;;11.07;7.75;;;281.80;1792.00;;;;;;5095822;28;20043;-54
2021/01/03 08:48:27;;;;;;;14.50;7.40;;;281.60;1817.60;;;;;;5103034;28;20032;-54
2021/01/03 08:51:09;;;;;;;15.02;8.55;;;281.60;1817.60;;;;;;5092788;28;20478;-54
2021/01/03 08:53:36;;;;;;;10.38;7.32;;;281.60;1817.60;;;;;;5103438;28;20026;-57
2021/01/03 08:56:15;;;;;;;14.85;9.05;;;281.70;1792.00;;;;;;5113791;28;20058;-54
2021/01/03 08:58:42;;;;;;;17.92;10.15;;;256.80;1792.00;;;;;;5113502;28;20121;-54
2021/01/03 09:01:28;;;;;;;21.23;12.00;;;281.60;1817.60;;;;;;5104321;28;20054;-56
2021/01/03 09:03:58;;;;;;;18.08;10.30;;;281.60;1792.00;;;;;;5102950;28;20138;-62
2021/01/03 09:06:25;;;;;;;15.70;10.02;;;281.60;1792.00;;;;;;5095757;28;21351;-61
2021/01/03 09:08:53;;;;;;;15.15;10.40;;;281.60;1792.00;;;;;;5092623;28;20036;-54
2021/01/03 09:11:26;;;;;;;17.42;9.80;;;281.80;1792.00;;;;;;5092604;28;20024;-52
2021/01/03 09:14:03;;;;;;;18.67;12.10;;;281.90;1792.00;;;;;;5092641;28;20016;-52
2021/01/03 09:16:37;;;;;;;17.05;10.55;;;282.00;1766.40;;;;;;5092657;28;20073;-52
2021/01/03 09:19:18;;;;;;;20.10;11.18;;;282.10;1766.40;;;;;;5080612;28;20024;-52
2021/01/03 09:21:53;;;;;;;17.00;11.73;;;282.10;1740.80;;;;;;5095014;28;20027;-56
2021/01/03 09:24:25;;;;;;;15.77;11.75;;;282.20;1740.80;;;;;;5105977;28;20034;-53
2021/01/03 09:26:54;;;;;;;19.40;11.00;;;282.30;1715.20;;;;;;5109324;28;20468;-52
2021/01/03 09:29:24;;;;;;;18.58;11.73;;;282.20;1740.80;;;;;;5092097;28;20016;-55
2021/01/03 09:32:07;;;;;;;21.90;18.60;;;282.30;1740.80;;;;;;5109074;28;20024;-52
2021/01/03 09:34:42;;;;;;;20.02;13.55;;;282.40;1715.20;;;;;;5091503;28;20020;-52
2021/01/03 09:37:22;;;;;;;16.45;11.70;;;307.20;1740.80;;;;;;5106023;28;20031;-51
2021/01/03 09:40:12;;;;;;;17.27;10.65;;;307.30;1715.20;;;;;;5093930;28;20377;-53
2021/01/03 09:42:40;;;;;;;13.40;9.82;;;307.50;1715.20;;;;;;5100258;28;20024;-52
2021/01/03 09:45:49;;;;;;;17.17;12.93;;;307.60;1664.00;;;;;;5092452;28;20489;-53
2021/01/03 09:48:28;;;;;;;17.85;10.70;;;307.50;1664.00;;;;;;5093636;28;20073;-52
2021/01/03 09:51:23;;;;;;;17.48;11.25;;;307.60;1664.00;;;;;;5103061;28;20432;-51
2021/01/03 09:54:03;;;;;;;16.83;10.88;;;307.60;1664.00;;;;;;5091846;28;20067;-52
2021/01/03 09:56:35;;;;;;;17.15;10.13;;;307.70;1664.00;;;;;;5089877;28;20454;-52
2021/01/03 09:59:10;;;;;;;15.65;10.48;;;307.60;1664.00;;;;;;5093381;28;20040;-54
2021/01/03 10:01:36;;;;;;;14.55;10.43;;;307.70;1638.40;;;;;;5095948;28;20065;-53
2021/01/03 10:04:13;;;;;;;20.80;12.73;;;307.70;1638.40;;;;;;5096077;28;20052;-53
2021/01/03 10:06:41;;;;;;;18.23;10.27;;;307.70;1638.40;;;;;;5108530;28;20507;-53
2021/01/03 10:09:18;;;;;;;17.50;11.23;;;307.70;1638.40;;;;;;5097436;28;20020;-53
2021/01/03 10:11:45;;;;;;;15.43;10.35;;;307.50;1664.00;;;;;;5095978;28;20264;-53
2021/01/03 10:14:27;;;;;;;14.63;9.93;;;307.60;1664.00;;;;;;5115110;28;20080;-54
2021/01/03 10:16:53;;;;;;;19.75;13.50;;;307.60;1664.00;;;;;;5116817;28;20084;-54
2021/01/03 10:19:22;;;;;;;17.88;13.18;;;307.60;1664.00;;;;;;5116031;28;20024;-54
2021/01/03 10:21:48;;;;;;;20.52;13.50;;;307.60;1664.00;;;;;;5116218;28;20496;-56
2021/01/03 10:24:24;;;;;;;17.75;11.77;;;307.80;1638.40;;;;;;5116643;28;20051;-53
2021/01/03 10:27:13;;;;;;;18.90;11.95;;;307.90;1638.40;;;;;;5114837;28;20504;-52
2021/01/03 10:29:40;;;;;;;19.25;12.60;;;307.80;1638.40;;;;;;5115926;28;20034;-54
2021/01/03 10:32:06;;;;;;;21.63;13.63;;;307.90;1638.40;;;;;;5115917;28;20031;-58
2021/01/03 10:34:32;;;;;;;21.05;12.70;;;308.00;1638.40;;;;;;5101775;28;20027;-56
2021/01/03 10:36:59;;;;;;;24.42;15.10;;;308.00;1612.80;;;;;;5116124;28;20032;-52
2021/01/03 10:39:27;;;;;;;23.65;13.77;;;308.10;1612.80;;;;;;5115642;28;20023;-53
2021/01/03 10:41:53;;;;;;;22.55;13.70;;;332.80;1612.80;;;;;;5108181;28;20024;-52
2021/01/03 10:44:19;;;;;;;18.75;13.68;;;308.00;1612.80;;;;;;5093951;28;20035;-54
2021/01/03 10:46:49;;;;;;;22.25;13.35;;;308.00;1612.80;;;;;;5097308;28;20044;-52
2021/01/03 10:49:15;;;;;;;22.40;13.43;;;308.00;1638.40;;;;;;5101294;28;20024;-52
2021/01/03 10:51:43;;;;;;;20.30;11.75;;;308.00;1664.00;;;;;;5111525;28;20032;-52
2021/01/03 10:54:15;;;;;;;20.63;11.95;;;308.00;1664.00;;;;;;5104704;28;20488;-53
2021/01/03 10:56:50;;;;;;;20.17;13.05;;;308.00;1638.40;;;;;;5115284;28;20027;-52
2021/01/03 10:59:16;;;;;;;17.90;12.63;;;307.80;1664.00;;;;;;5115760;28;20514;-51
2021/01/03 11:01:42;;;;;;;29.02;20.08;;;307.80;1664.00;;;;;;5097857;28;20028;-52
2021/01/03 11:04:08;;;;;;;25.40;17.77;;;307.80;1638.40;;;;;;5094763;28;20106;-52
2021/01/03 11:06:39;;;;;;;22.90;17.50;;;307.90;1664.00;;;;;;5094609;28;20460;-53
2021/01/03 11:09:07;;;;;;;21.25;16.85;;;308.00;1664.00;;;;;;5094828;28;20027;-51
2021/01/03 11:11:33;;;;;;;22.67;13.00;;;308.10;1664.00;;;;;;5094284;28;20028;-52
2021/01/03 11:13:58;;;;;;;22.55;13.60;;;333.10;1638.40;;;;;;5094692;28;20382;-52
2021/01/03 11:16:36;;;;;;;20.90;12.60;;;333.30;1612.80;;;;;;5094683;28;20522;-54
2021/01/03 11:19:02;;;;;;;21.15;14.10;;;333.60;1587.20;;;;;;5094388;28;20020;-53
2021/01/03 11:21:27;;;;;;;25.20;15.05;;;333.70;1587.20;;;;;;5094288;28;20024;-51
2021/01/03 11:23:53;;;;;;;24.98;15.80;;;358.50;1561.60;;;;;;5091223;28;20084;-52
2021/01/03 11:26:30;;;;;;;22.77;14.27;;;358.40;1561.60;;;;;;5094436;28;20467;-52
2021/01/03 11:28:56;;;;;;;24.17;15.40;;;358.40;1536.00;;;;;;5094421;28;20409;-50
2021/01/03 11:31:22;;;;;;;23.48;14.95;;;358.50;1561.60;;;;;;5092213;28;20028;-52
2021/01/03 11:33:47;;;;;;;21.75;14.82;;;358.50;1536.00;;;;;;5094683;28;20027;-52
2021/01/03 11:36:17;;;;;;;23.50;14.50;;;333.70;1561.60;;;;;;5092816;28;20422;-51
2021/01/03 11:38:43;;;;;;;27.02;17.73;;;358.50;1561.60;;;;;;5094208;28;20024;-51
2021/01/03 11:41:11;;;;;;;22.85;15.30;;;358.40;1561.60;;;;;;5094090;28;20028;-53
2021/01/03 11:43:38;;;;;;;22.90;15.10;;;358.50;1561.60;;;;;;5094381;28;20020;-52
2021/01/03 11:46:04;;;;;;;36.15;23.33;;;358.50;1587.20;;;;;;5106725;28;20032;-52
2021/01/03 11:48:30;;;;;;;24.10;15.27;;;358.40;1587.20;;;;;;5109939;28;20089;-53
2021/01/03 11:50:56;;;;;;;22.33;14.80;;;358.40;1587.20;;;;;;5112425;28;20028;-52
2021/01/03 11:53:21;;;;;;;25.63;16.73;;;358.50;1587.20;;;;;;5111106;28;20197;-52
2021/01/03 11:55:47;;;;;;;34.35;20.80;;;358.40;1587.20;;;;;;5113438;28;20026;-53
2021/01/03 11:58:13;;;;;;;26.02;16.20;;;333.70;1587.20;;;;;;5113345;28;20028;-52
2021/01/03 12:00:40;;;;;;;27.02;16.33;;;333.70;1612.80;;;;;;5107897;28;20020;-53
2021/01/03 12:03:06;;;;;;;28.55;16.10;;;358.40;1612.80;;;;;;5093285;28;20024;-52
2021/01/03 12:05:32;;;;;;;27.05;16.02;;;358.40;1587.20;;;;;;5106305;28;20036;-52
2021/01/03 12:07:58;;;;;;;26.25;15.80;;;358.40;1612.80;;;;;;5093630;28;20458;-52
2021/01/03 12:10:24;;;;;;;22.15;14.30;;;358.40;1612.80;;;;;;5093733;28;20055;-52
2021/01/03 12:12:49;;;;;;;27.55;15.00;;;358.40;1587.20;;;;;;5093472;28;20056;-51
2021/01/03 12:15:17;;;;;;;27.15;15.02;;;333.70;1612.80;;;;;;5093835;28;20028;-52
2021/01/03 12:17:43;;;;;;;23.23;14.82;;;358.40;1612.80;;;;;;5091910;28;20024;-52
2021/01/03 12:20:10;;;;;;;23.27;14.95;;;358.40;1612.80;;;;;;5093787;28;20077;-53
2021/01/03 12:22:36;;;;;;;26.85;15.55;;;358.50;1587.20;;;;;;5095762;28;20038;-53
2021/01/03 12:25:04;;;;;;;27.23;16.17;;;358.50;1587.20;;;;;;5107916;28;20133;-55